Time;durP1;ratioP1;P1;durP2;ratioP2;P2;SDS_P1;SDS_P2;PMS_P1;PMS_P2;Temp;Humidity;BMP_temperature;BMP_pressure;BME280_temperature;BME280_humidity;BME280_pressure;Samples;Min_cycle;Max_cycle;Signal;HPM_P1;HPM_P2
2023/01/28 00:00:34;;;;;;;;;;;;;;;;;;4997644;28;19967;-65
2023/01/28 00:02:59;;;;;;;;;;;;;;;;;;4988109;28;19921;-65
2023/01/28 00:05:25;;;;;;;;;;;;;;;;;;5002968;28;20369;-66
2023/01/28 00:07:53;;;;;;;;;;;;;;;;;;5001053;28;19940;-65
2023/01/28 00:10:18;;;;;;;;;;;;;;;;;;4999590;28;19921;-65
2023/01/28 00:12:44;;;;;;;;;;;;;;;;;;5005330;28;19987;-67
2023/01/28 00:15:09;;;;;;;;;;;;;;;;;;5001707;28;19971;-66
2023/01/28 00:17:35;;;;;;;;;;;;;;;;;;5003960;28;19923;-66
2023/01/28 00:20:01;;;;;;;;;;;;;;;;;;4982944;28;19921;-66
2023/01/28 00:22:27;;;;;;;;;;;;;;;;;;5001404;28;19931;-65
2023/01/28 00:24:52;;;;;;;;;;;;;;;;;;4996420;28;21706;-66
2023/01/28 00:27:17;;;;;;;;;;;;;;;;;;5003600;28;20459;-66
2023/01/28 00:29:43;;;;;;;;;;;;;;;;;;4996217;28;20367;-65
2023/01/28 00:35:25;;;;;;;;;;;;;;;;;;5000114;28;20503;-66
2023/01/28 00:37:53;;;;;;;;;;;;;;;;;;5004809;28;20378;-65
2023/01/28 00:40:18;;;;;;;;;;;;;;;;;;5003640;28;20016;-67
2023/01/28 00:42:44;;;;;;;;;;;;;;;;;;5001882;28;19929;-65
2023/01/28 00:45:09;;;;;;;;;;;;;;;;;;5004929;28;19972;-67
2023/01/28 00:47:37;;;;;;;;;;;;;;;;;;5002526;28;21549;-66
2023/01/28 00:50:05;;;;;;;;;;;;;;;;;;4998210;28;20950;-65
2023/01/28 00:52:31;;;;;;;;;;;;;;;;;;4998832;28;21462;-65
2023/01/28 00:54:56;;;;;;;;;;;;;;;;;;5002337;28;20442;-65
2023/01/28 00:57:22;;;;;;;;;;;;;;;;;;4999825;28;20463;-66
2023/01/28 00:59:47;;;;;;;;;;;;;;;;;;4997718;28;20497;-65
2023/01/28 01:02:13;;;;;;;;;;;;;;;;;;5003245;28;20535;-65
2023/01/28 01:04:39;;;;;;;;;;;;;;;;;;5003188;28;19996;-66
2023/01/28 01:07:07;;;;;;;;;;;;;;;;;;5003135;28;19995;-65
2023/01/28 01:09:33;;;;;;;;;;;;;;;;;;5003842;28;19917;-67
2023/01/28 01:11:58;;;;;;;;;;;;;;;;;;5002805;28;20416;-67
2023/01/28 01:14:26;;;;;;;;;;;;;;;;;;4981881;28;21523;-67
2023/01/28 01:16:51;;;;;;;;;;;;;;;;;;4978239;28;19917;-66
2023/01/28 01:19:19;;;;;;;;;;;;;;;;;;4997947;28;19917;-66
2023/01/28 01:21:49;;;;;;;;;;;;;;;;;;5004734;28;20304;-66
2023/01/28 01:24:14;;;;;;;;;;;;;;;;;;5003393;28;19958;-67
2023/01/28 01:26:40;;;;;;;;;;;;;;;;;;5000646;28;20001;-66
2023/01/28 01:29:08;;;;;;;;;;;;;;;;;;4998084;28;19921;-66
2023/01/28 01:31:33;;;;;;;;;;;;;;;;;;4996979;28;19991;-66
2023/01/28 01:34:01;;;;;;;;;;;;;;;;;;5004008;28;20012;-67
2023/01/28 01:36:27;;;;;;;;;;;;;;;;;;4994175;28;19925;-66
2023/01/28 01:38:52;;;;;;;;;;;;;;;;;;5012564;28;19921;-66
2023/01/28 01:41:19;;;;;;;;;;;;;;;;;;5003553;28;20356;-67
2023/01/28 01:43:45;;;;;;;;;;;;;;;;;;5003341;28;20125;-67
2023/01/28 01:46:10;;;;;;;;;;;;;;;;;;5004559;28;19928;-66
2023/01/28 01:48:36;;;;;;;;;;;;;;;;;;5012659;28;20460;-66
2023/01/28 01:51:04;;;;;;;;;;;;;;;;;;4999379;28;20402;-66
2023/01/28 01:56:46;;;;;;;;;;;;;;;;;;5002710;28;20832;-65
2023/01/28 01:59:12;;;;;;;;;;;;;;;;;;5003049;28;19931;-66
2023/01/28 02:01:38;;;;;;;;;;;;;;;;;;4995959;28;19917;-66
2023/01/28 02:06:52;;;;;;;;;;;;;;;;;;5000217;28;21706;-66
2023/01/28 02:09:17;;;;;;;;;;;;;;;;;;4995169;28;19943;-66
2023/01/28 02:11:43;;;;;;;;;;;;;;;;;;5001362;28;20379;-66
2023/01/28 02:14:08;;;;;;;;;;;;;;;;;;4992800;28;20359;-67
2023/01/28 02:16:34;;;;;;;;;;;;;;;;;;5001945;28;19955;-67
2023/01/28 02:18:59;;;;;;;;;;;;;;;;;;4999381;28;20044;-67
2023/01/28 02:21:24;;;;;;;;;;;;;;;;;;5002516;28;19932;-66
2023/01/28 02:23:50;;;;;;;;;;;;;;;;;;5001568;28;19920;-66
2023/01/28 02:26:15;;;;;;;;;;;;;;;;;;5001958;28;19917;-66
2023/01/28 02:28:40;;;;;;;;;;;;;;;;;;4976712;28;19921;-66
2023/01/28 02:31:08;;;;;;;;;;;;;;;;;;4982841;28;19921;-67
2023/01/28 02:33:34;;;;;;;;;;;;;;;;;;4985122;28;20214;-67
2023/01/28 02:35:59;;;;;;;;;;;;;;;;;;5002885;28;19979;-66
2023/01/28 02:38:27;;;;;;;;;;;;;;;;;;5003131;28;19917;-66
2023/01/28 02:41:01;;;;;;;;;;;;;;;;;;5000449;28;20264;-67
2023/01/28 02:43:27;;;;;;;;;;;;;;;;;;5001992;28;19918;-66
2023/01/28 02:48:37;;;;;;;;;;;;;;;;;;5002466;28;19925;-66
2023/01/28 02:51:06;;;;;;;;;;;;;;;;;;5001703;28;19931;-66
2023/01/28 02:53:42;;;;;;;;;;;;;;;;;;5002240;28;20280;-66
2023/01/28 02:56:08;;;;;;;;;;;;;;;;;;4995294;28;20058;-66
2023/01/28 02:58:33;;;;;;;;;;;;;;;;;;4999475;28;19927;-67
2023/01/28 03:01:03;;;;;;;;;;;;;;;;;;5008596;28;19928;-67
2023/01/28 03:03:29;;;;;;;;;;;;;;;;;;5002190;28;20446;-66
2023/01/28 03:06:12;;;;;;;;;;;;;;;;;;4978135;28;20056;-66
2023/01/28 03:36:52;;;;;;;;;;;;;;;;;;4998628;28;19925;-65
2023/01/28 03:39:17;;;;;;;;;;;;;;;;;;4981775;28;19917;-66
2023/01/28 03:41:42;;;;;;;;;;;;;;;;;;5000534;28;20518;-67
2023/01/28 03:46:52;;;;;;;;;;;;;;;;;;4999678;28;20542;-67
2023/01/28 03:49:37;;;;;;;;;;;;;;;;;;5001302;28;19928;-67
2023/01/28 03:52:02;;;;;;;;;;;;;;;;;;4995579;28;19921;-66
2023/01/28 03:54:27;;;;;;;;;;;;;;;;;;4997981;28;20726;-67
2023/01/28 03:56:53;;;;;;;;;;;;;;;;;;4985462;28;19925;-66
2023/01/28 03:59:18;;;;;;;;;;;;;;;;;;4996079;28;19991;-66
2023/01/28 04:02:04;;;;;;;;;;;;;;;;;;4996853;28;20296;-67
2023/01/28 04:04:31;;;;;;;;;;;;;;;;;;5002180;28;19921;-66
2023/01/28 04:06:59;;;;;;;;;;;;;;;;;;4999400;28;22048;-66
2023/01/28 04:09:27;;;;;;;;;;;;;;;;;;5001352;28;20458;-66
2023/01/28 04:11:52;;;;;;;;;;;;;;;;;;4998476;28;19921;-66
2023/01/28 04:14:39;;;;;;;;;;;;;;;;;;4998652;28;19976;-66
2023/01/28 04:17:06;;;;;;;;;;;;;;;;;;4976733;28;19921;-66
2023/01/28 04:19:35;;;;;;;;;;;;;;;;;;4993623;28;19925;-67
2023/01/28 04:22:01;;;;;;;;;;;;;;;;;;4995095;28;20003;-66
2023/01/28 04:24:29;;;;;;;;;;;;;;;;;;5002251;28;19963;-66
2023/01/28 04:26:56;;;;;;;;;;;;;;;;;;5003496;28;19953;-66
2023/01/28 04:29:22;;;;;;;;;;;;;;;;;;5000515;28;20193;-66
2023/01/28 04:31:47;;;;;;;;;;;;;;;;;;4979224;28;20270;-67
2023/01/28 04:34:16;;;;;;;;;;;;;;;;;;5002580;28;19930;-66
2023/01/28 04:36:41;;;;;;;;;;;;;;;;;;5003614;28;19935;-66
2023/01/28 04:39:06;;;;;;;;;;;;;;;;;;4980633;28;19921;-66
2023/01/28 04:41:32;;;;;;;;;;;;;;;;;;5004795;28;19921;-65
2023/01/28 04:43:59;;;;;;;;;;;;;;;;;;4987417;28;19921;-65
2023/01/28 04:46:25;;;;;;;;;;;;;;;;;;5000567;28;20003;-66
2023/01/28 04:48:51;;;;;;;;;;;;;;;;;;5001302;28;19933;-65
2023/01/28 04:51:16;;;;;;;;;;;;;;;;;;5002799;28;20363;-65
2023/01/28 04:53:44;;;;;;;;;;;;;;;;;;5002849;28;20908;-66
2023/01/28 04:56:09;;;;;;;;;;;;;;;;;;5002036;28;19929;-65
2023/01/28 04:58:36;;;;;;;;;;;;;;;;;;5001541;28;19917;-65
2023/01/28 05:01:01;;;;;;;;;;;;;;;;;;4992609;28;20451;-66
2023/01/28 05:03:29;;;;;;;;;;;;;;;;;;5004800;28;20059;-66
2023/01/28 05:05:55;;;;;;;;;;;;;;;;;;5001972;28;19921;-66
2023/01/28 05:08:20;;;;;;;;;;;;;;;;;;5004616;28;19923;-66
2023/01/28 05:10:46;;;;;;;;;;;;;;;;;;5004662;28;20041;-66
2023/01/28 05:13:13;;;;;;;;;;;;;;;;;;5003504;28;19921;-66
2023/01/28 05:15:41;;;;;;;;;;;;;;;;;;4999705;28;19924;-66
2023/01/28 05:18:07;;;;;;;;;;;;;;;;;;4996023;28;20358;-66
2023/01/28 05:20:35;;;;;;;;;;;;;;;;;;4995916;28;20012;-65
2023/01/28 05:23:00;;;;;;;;;;;;;;;;;;5003178;28;20349;-66
2023/01/28 05:25:26;;;;;;;;;;;;;;;;;;4998761;28;19986;-65
2023/01/28 05:27:51;;;;;;;;;;;;;;;;;;4994382;28;19960;-65
2023/01/28 05:30:19;;;;;;;;;;;;;;;;;;5008716;28;20023;-66
2023/01/28 05:32:45;;;;;;;;;;;;;;;;;;4999606;28;20410;-66
2023/01/28 05:35:13;;;;;;;;;;;;;;;;;;5000831;28;19925;-67
2023/01/28 05:37:41;;;;;;;;;;;;;;;;;;4988930;28;20012;-65
2023/01/28 05:40:07;;;;;;;;;;;;;;;;;;5000405;28;19921;-66
2023/01/28 05:42:35;;;;;;;;;;;;;;;;;;4998067;28;19938;-65
2023/01/28 05:45:02;;;;;;;;;;;;;;;;;;4999772;28;20048;-66
2023/01/28 05:47:28;;;;;;;;;;;;;;;;;;5000281;28;20667;-66
2023/01/28 05:49:56;;;;;;;;;;;;;;;;;;4980758;28;20304;-66
2023/01/28 05:52:23;;;;;;;;;;;;;;;;;;5009034;28;19928;-65
2023/01/28 05:54:49;;;;;;;;;;;;;;;;;;5003070;28;19916;-67
2023/01/28 05:57:15;;;;;;;;;;;;;;;;;;5001105;28;20115;-65
2023/01/28 05:59:40;;;;;;;;;;;;;;;;;;5001941;28;19928;-66
2023/01/28 06:02:05;;;;;;;;;;;;;;;;;;4987055;28;19921;-66
2023/01/28 06:04:33;;;;;;;;;;;;;;;;;;4994536;28;20069;-66
2023/01/28 06:06:59;;;;;;;;;;;;;;;;;;4999722;28;20286;-66
2023/01/28 06:09:24;;;;;;;;;;;;;;;;;;4999933;28;19918;-67
2023/01/28 06:11:50;;;;;;;;;;;;;;;;;;5001168;28;19921;-66
2023/01/28 06:14:18;;;;;;;;;;;;;;;;;;5001307;28;19929;-66
2023/01/28 06:16:46;;;;;;;;;;;;;;;;;;4992353;28;20549;-65
2023/01/28 06:19:12;;;;;;;;;;;;;;;;;;5001285;28;20024;-66
2023/01/28 06:21:42;;;;;;;;;;;;;;;;;;5001432;28;19928;-66
2023/01/28 06:24:07;;;;;;;;;;;;;;;;;;4998980;28;19921;-66
2023/01/28 06:26:32;;;;;;;;;;;;;;;;;;4997695;28;20479;-67
2023/01/28 06:29:00;;;;;;;;;;;;;;;;;;4977994;28;21007;-66
2023/01/28 06:31:25;;;;;;;;;;;;;;;;;;4996046;28;19917;-66
2023/01/28 06:33:50;;;;;;;;;;;;;;;;;;4998858;28;19929;-65
2023/01/28 06:36:18;;;;;;;;;;;;;;;;;;5010839;28;19971;-65
2023/01/28 06:42:00;;;;;;;;;;;;;;;;;;5002137;28;20304;-64
2023/01/28 06:44:25;;;;;;;;;;;;;;;;;;4985283;28;19917;-66
2023/01/28 06:46:50;;;;;;;;;;;;;;;;;;5000445;28;20615;-64
2023/01/28 06:49:16;;;;;;;;;;;;;;;;;;5002870;28;19921;-66
2023/01/28 06:51:44;;;;;;;;;;;;;;;;;;4999454;28;19944;-66
2023/01/28 06:54:09;;;;;;;;;;;;;;;;;;4995014;28;19921;-66
2023/01/28 06:56:35;;;;;;;;;;;;;;;;;;4996578;28;20356;-66
2023/01/28 06:59:00;;;;;;;;;;;;;;;;;;5003475;28;20377;-66
2023/01/28 07:01:25;;;;;;;;;;;;;;;;;;4996325;28;20241;-66
2023/01/28 07:03:51;;;;;;;;;;;;;;;;;;4991930;28;19924;-66
2023/01/28 07:06:16;;;;;;;;;;;;;;;;;;4994781;28;19921;-66
2023/01/28 07:08:45;;;;;;;;;;;;;;;;;;5006234;28;19952;-68
2023/01/28 07:11:10;;;;;;;;;;;;;;;;;;4997479;28;19921;-67
2023/01/28 07:13:35;;;;;;;;;;;;;;;;;;4977367;28;19927;-68
2023/01/28 07:16:03;;;;;;;;;;;;;;;;;;4998066;28;19921;-65
2023/01/28 07:18:28;;;;;;;;;;;;;;;;;;4976139;28;19932;-66
2023/01/28 07:20:55;;;;;;;;;;;;;;;;;;4999490;28;20265;-66
2023/01/28 07:23:22;;;;;;;;;;;;;;;;;;5003533;28;19928;-67
2023/01/28 07:25:53;;;;;;;;;;;;;;;;;;4994816;28;19928;-66
2023/01/28 07:28:20;;;;;;;;;;;;;;;;;;4997996;28;19921;-66
2023/01/28 07:30:48;;;;;;;;;;;;;;;;;;4996870;28;19921;-66
2023/01/28 07:33:13;;;;;;;;;;;;;;;;;;5002210;28;19920;-65
2023/01/28 07:35:41;;;;;;;;;;;;;;;;;;5012035;28;19963;-67
2023/01/28 07:38:09;;;;;;;;;;;;;;;;;;4978243;28;19928;-66
2023/01/28 07:40:34;;;;;;;;;;;;;;;;;;5000607;28;19921;-67
2023/01/28 07:43:02;;;;;;;;;;;;;;;;;;4985419;28;20572;-67
2023/01/28 07:45:30;;;;;;;;;;;;;;;;;;5009978;28;19928;-66
2023/01/28 07:47:56;;;;;;;;;;;;;;;;;;5002522;28;20324;-67
2023/01/28 07:50:23;;;;;;;;;;;;;;;;;;4999468;28;19925;-67
2023/01/28 07:52:51;;;;;;;;;;;;;;;;;;5000721;28;20393;-66
2023/01/28 07:55:16;;;;;;;;;;;;;;;;;;5001384;28;19988;-67
2023/01/28 07:57:42;;;;;;;;;;;;;;;;;;4986626;28;20369;-66
2023/01/28 08:00:07;;;;;;;;;;;;;;;;;;4981921;28;20572;-66
2023/01/28 08:02:35;;;;;;;;;;;;;;;;;;5014448;28;20133;-65
2023/01/28 08:05:00;;;;;;;;;;;;;;;;;;5002525;28;20078;-66
2023/01/28 08:07:29;;;;;;;;;;;;;;;;;;5004575;28;19932;-66
2023/01/28 08:09:57;;;;;;;;;;;;;;;;;;5004211;28;20537;-66
2023/01/28 08:12:23;;;;;;;;;;;;;;;;;;5003903;28;19917;-66
2023/01/28 08:14:49;;;;;;;;;;;;;;;;;;4985816;28;19968;-64
2023/01/28 08:17:16;;;;;;;;;;;;;;;;;;5004093;28;20027;-64
2023/01/28 08:19:43;;;;;;;;;;;;;;;;;;5000237;28;19972;-65
2023/01/28 08:22:08;;;;;;;;;;;;;;;;;;5004451;28;20445;-66
2023/01/28 08:24:34;;;;;;;;;;;;;;;;;;5005884;28;19983;-65
2023/01/28 08:26:59;;;;;;;;;;;;;;;;;;5013277;28;20636;-65
2023/01/28 08:29:24;;;;;;;;;;;;;;;;;;5001539;28;20063;-66
2023/01/28 08:31:50;;;;;;;;;;;;;;;;;;4988893;28;19967;-67
2023/01/28 08:34:15;;;;;;;;;;;;;;;;;;4999949;28;19921;-66
2023/01/28 08:36:43;;;;;;;;;;;;;;;;;;5001131;28;19979;-66
2023/01/28 08:39:09;;;;;;;;;;;;;;;;;;4986227;28;19917;-66
2023/01/28 08:41:34;;;;;;;;;;;;;;;;;;4992573;28;19932;-65
2023/01/28 08:44:00;;;;;;;;;;;;;;;;;;5001677;28;19917;-65
2023/01/28 08:46:25;;;;;;;;;;;;;;;;;;4999420;28;20040;-66
2023/01/28 08:48:50;;;;;;;;;;;;;;;;;;4976906;28;19921;-66
2023/01/28 08:51:16;;;;;;;;;;;;;;;;;;5002095;28;20023;-65
2023/01/28 08:53:44;;;;;;;;;;;;;;;;;;4999981;28;21414;-66
2023/01/28 08:56:15;;;;;;;;;;;;;;;;;;5001066;28;20430;-65
2023/01/28 08:58:41;;;;;;;;;;;;;;;;;;4999954;28;20012;-65
2023/01/28 09:01:06;;;;;;;;;;;;;;;;;;4998316;28;20002;-65
2023/01/28 09:03:34;;;;;;;;;;;;;;;;;;4994478;28;19968;-64
2023/01/28 09:06:00;;;;;;;;;;;;;;;;;;5000520;28;19921;-64
2023/01/28 09:08:26;;;;;;;;;;;;;;;;;;4999843;28;19921;-65
2023/01/28 09:10:51;;;;;;;;;;;;;;;;;;5000897;28;19917;-64
2023/01/28 09:13:17;;;;;;;;;;;;;;;;;;5001551;28;19921;-65
2023/01/28 09:15:44;;;;;;;;;;;;;;;;;;4993086;28;20081;-64
2023/01/28 09:18:10;;;;;;;;;;;;;;;;;;5000351;28;19925;-66
2023/01/28 09:20:35;;;;;;;;;;;;;;;;;;4997025;28;20879;-65
2023/01/28 09:23:03;;;;;;;;;;;;;;;;;;5002081;28;20289;-64
2023/01/28 09:25:31;;;;;;;;;;;;;;;;;;4999817;28;19940;-66
2023/01/28 09:27:58;;;;;;;;;;;;;;;;;;5014467;28;19967;-65
2023/01/28 09:30:26;;;;;;;;;;;;;;;;;;4998855;28;20551;-67
2023/01/28 09:32:54;;;;;;;;;;;;;;;;;;4986041;28;20124;-65
2023/01/28 09:35:19;;;;;;;;;;;;;;;;;;4996041;28;19940;-66
2023/01/28 09:37:45;;;;;;;;;;;;;;;;;;5001315;28;20444;-68
2023/01/28 09:40:10;;;;;;;;;;;;;;;;;;4997424;28;20958;-67
2023/01/28 09:42:38;;;;;;;;;;;;;;;;;;5011384;28;20147;-67
2023/01/28 09:45:03;;;;;;;;;;;;;;;;;;5000475;28;19927;-66
2023/01/28 09:47:29;;;;;;;;;;;;;;;;;;5002699;28;19971;-67
2023/01/28 09:49:55;;;;;;;;;;;;;;;;;;5011249;28;19921;-67
2023/01/28 09:52:23;;;;;;;;;;;;;;;;;;5001992;28;19971;-67
2023/01/28 09:54:49;;;;;;;;;;;;;;;;;;5001391;28;20022;-68
2023/01/28 09:57:15;;;;;;;;;;;;;;;;;;4998205;28;20617;-67
2023/01/28 09:59:40;;;;;;;;;;;;;;;;;;5000130;28;20706;-67
2023/01/28 10:02:06;;;;;;;;;;;;;;;;;;4992997;28;19956;-68
2023/01/28 10:04:32;;;;;;;;;;;;;;;;;;4990904;28;19921;-68
2023/01/28 10:06:58;;;;;;;;;;;;;;;;;;4997087;28;19976;-67
2023/01/28 10:09:24;;;;;;;;;;;;;;;;;;4992431;28;20378;-68
2023/01/28 10:11:50;;;;;;;;;;;;;;;;;;4999554;28;20415;-67
2023/01/28 10:14:15;;;;;;;;;;;;;;;;;;4996470;28;19932;-68
2023/01/28 10:16:43;;;;;;;;;;;;;;;;;;4981349;28;19925;-68
2023/01/28 10:19:11;;;;;;;;;;;;;;;;;;4982967;28;19918;-68
2023/01/28 10:21:38;;;;;;;;;;;;;;;;;;4999112;28;19944;-67
2023/01/28 10:24:03;;;;;;;;;;;;;;;;;;5001479;28;19944;-67
2023/01/28 10:26:31;;;;;;;;;;;;;;;;;;5000081;28;19927;-68
2023/01/28 10:28:56;;;;;;;;;;;;;;;;;;4975419;28;19921;-68
2023/01/28 10:31:24;;;;;;;;;;;;;;;;;;4977318;28;19917;-67
2023/01/28 10:33:52;;;;;;;;;;;;;;;;;;5000415;28;19940;-66
2023/01/28 10:36:17;;;;;;;;;;;;;;;;;;4993031;28;19925;-65
2023/01/28 10:38:46;;;;;;;;;;;;;;;;;;4997949;28;19923;-66
2023/01/28 10:41:11;;;;;;;;;;;;;;;;;;4997323;28;19987;-68
2023/01/28 10:43:39;;;;;;;;;;;;;;;;;;4992305;28;20584;-67
2023/01/28 10:46:07;;;;;;;;;;;;;;;;;;4998514;28;21259;-67
2023/01/28 10:48:33;;;;;;;;;;;;;;;;;;4984525;28;19921;-67
2023/01/28 10:51:01;;;;;;;;;;;;;;;;;;4995939;28;19925;-66
2023/01/28 10:53:26;;;;;;;;;;;;;;;;;;4997718;28;19921;-67
2023/01/28 10:55:51;;;;;;;;;;;;;;;;;;4974122;28;20431;-69
2023/01/28 10:58:19;;;;;;;;;;;;;;;;;;4999918;28;20401;-68
2023/01/28 11:00:45;;;;;;;;;;;;;;;;;;4990150;28;19967;-67
2023/01/28 11:03:11;;;;;;;;;;;;;;;;;;4993405;28;19921;-67
2023/01/28 11:05:38;;;;;;;;;;;;;;;;;;4991589;28;19928;-67
2023/01/28 11:08:04;;;;;;;;;;;;;;;;;;4996053;28;19922;-66
2023/01/28 11:10:31;;;;;;;;;;;;;;;;;;4996504;28;20443;-68
2023/01/28 11:12:56;;;;;;;;;;;;;;;;;;4991488;28;20178;-67
2023/01/28 11:15:23;;;;;;;;;;;;;;;;;;4993973;28;20443;-66
2023/01/28 11:17:52;;;;;;;;;;;;;;;;;;4999725;28;19921;-67
2023/01/28 11:20:17;;;;;;;;;;;;;;;;;;4994771;28;19925;-69
2023/01/28 11:22:45;;;;;;;;;;;;;;;;;;4997709;28;19920;-68
2023/01/28 11:25:11;;;;;;;;;;;;;;;;;;4997979;28;19917;-67
2023/01/28 11:27:54;;;;;;;;;;;;;;;;;;;;;
2023/01/28 11:31:03;;;;;;;;;;;;;;;;;;5073369;28;19938;-91
2023/01/28 11:33:29;;;;;;;;;;;;;;;;;;5059699;28;19916;-89
2023/01/28 11:35:57;;;;;;;;;;;;;;;;;;5060051;28;19925;-92
2023/01/28 11:38:35;;;;;;;;;;;;;;;;;;5060244;28;20373;-92
2023/01/28 11:41:17;;;;;;;;;;;;;;;;;;5077336;28;19956;-91
2023/01/28 11:43:44;;;;;;;;;;;;;;;;;;5078541;28;19912;-91
2023/01/28 11:46:16;;;;;;;;;;;;;;;;;;5065777;28;20351;-89
2023/01/28 11:49:01;;;;;;;;;;;;;;;;;;5079787;28;19916;-92
2023/01/28 11:51:27;;;;;;;;;;;;;;;;;;5050042;28;19923;-89
2023/01/28 11:54:01;;;;;;;;;;;;;;;;;;5049819;28;19916;-92
2023/01/28 11:56:28;;;;;;;;;;;;;;;;;;5043575;28;19927;-90
2023/01/28 11:59:05;;;;;;;;;;;;;;;;;;5026279;28;19932;-92
2023/01/28 12:01:30;;;;;;;;;;;;;;;;;;5042504;28;20012;-92
2023/01/28 12:04:01;;;;;;;;;;;;;;;;;;5043766;28;19948;-90
2023/01/28 12:06:26;;;;;;;;;;;;;;;;;;5025227;28;19948;-91
2023/01/28 12:08:52;;;;;;;;;;;;;;;;;;5027019;28;19913;-92
2023/01/28 12:11:17;;;;;;;;;;;;;;;;;;5043276;28;20400;-89
2023/01/28 12:13:45;;;;;;;;;;;;;;;;;;5044551;28;19913;-95
2023/01/28 12:16:27;;;;;;;;;;;;;;;;;;5031097;28;19917;-90
2023/01/28 12:22:14;;;;;;;;;;;;;;;;;;5060701;28;19940;-89
2023/01/28 12:44:59;;;;;;;;;;;;;;;;;;5005172;28;19936;-91
2023/01/28 12:57:19;;;;;;;;;;;;;;;;;;5010024;28;20215;-90
2023/01/28 12:59:48;;;;;;;;;;;;;;;;;;4967569;28;20027;-88
2023/01/28 13:08:49;;;;;;;;;;;;;;;;;;5037930;28;19963;-92
2023/01/28 13:17:34;;;;;;;;;;;;;;;;;;5071230;28;19934;-89
2023/01/28 13:23:28;;;;;;;;;;;;;;;;;;5091305;28;19931;-90
2023/01/28 13:26:11;;;;;;;;;;;;;;;;;;5069124;28;19917;-87
2023/01/28 13:28:52;;;;;;;;;;;;;;;;;;5052921;28;20010;-89
2023/01/28 13:37:51;;;;;;;;;;;;;;;;;;5086835;28;19949;-90
2023/01/28 13:44:13;;;;;;;;;;;;;;;;;;5088371;28;19931;-89
2023/01/28 13:50:04;;;;;;;;;;;;;;;;;;5093345;28;19942;-88
2023/01/28 13:55:30;;;;;;;;;;;;;;;;;;5077750;28;19920;-89
2023/01/28 14:01:16;;;;;;;;;;;;;;;;;;5084595;28;19912;-93
2023/01/28 14:03:49;;;;;;;;;;;;;;;;;;5051220;28;20002;-91
2023/01/28 14:06:22;;;;;;;;;;;;;;;;;;5067996;28;19931;-86
2023/01/28 14:11:42;;;;;;;;;;;;;;;;;;5088905;28;19913;-87
2023/01/28 14:23:45;;;;;;;;;;;;;;;;;;5031133;28;19925;-88
2023/01/28 14:26:11;;;;;;;;;;;;;;;;;;4998330;28;19910;-87
2023/01/28 14:31:55;;;;;;;;;;;;;;;;;;5091343;28;19935;-85
2023/01/28 14:34:24;;;;;;;;;;;;;;;;;;5057735;28;19912;-91
2023/01/28 14:52:21;;;;;;;;;;;;;;;;;;5077661;28;19924;-93
2023/01/28 14:54:46;;;;;;;;;;;;;;;;;;5044512;28;19924;-89
2023/01/28 14:57:16;;;;;;;;;;;;;;;;;;5061439;28;19963;-91
2023/01/28 14:59:42;;;;;;;;;;;;;;;;;;5045298;28;20480;-92
2023/01/28 15:02:09;;;;;;;;;;;;;;;;;;5060567;28;19912;-91
2023/01/28 15:04:35;;;;;;;;;;;;;;;;;;5060649;28;19913;-89
2023/01/28 15:07:02;;;;;;;;;;;;;;;;;;5051908;28;19896;-90
2023/01/28 15:09:31;;;;;;;;;;;;;;;;;;5052020;28;19923;-91
2023/01/28 15:12:00;;;;;;;;;;;;;;;;;;5067821;28;19916;-89
2023/01/28 15:14:25;;;;;;;;;;;;;;;;;;5044767;28;19942;-89
2023/01/28 15:16:51;;;;;;;;;;;;;;;;;;5046435;28;19924;-90
2023/01/28 15:19:16;;;;;;;;;;;;;;;;;;5060934;28;19920;-92
2023/01/28 15:21:41;;;;;;;;;;;;;;;;;;5043855;28;20175;-91
2023/01/28 15:24:07;;;;;;;;;;;;;;;;;;5055170;28;19928;-91
2023/01/28 15:26:41;;;;;;;;;;;;;;;;;;5049463;28;19912;-90
2023/01/28 15:29:06;;;;;;;;;;;;;;;;;;5059003;28;19913;-92
2023/01/28 15:31:32;;;;;;;;;;;;;;;;;;5077772;28;19923;-92
2023/01/28 15:33:58;;;;;;;;;;;;;;;;;;5041573;28;19924;-91
2023/01/28 15:36:26;;;;;;;;;;;;;;;;;;5078011;28;19923;-90
2023/01/28 15:38:53;;;;;;;;;;;;;;;;;;5061551;28;19940;-89
2023/01/28 15:41:19;;;;;;;;;;;;;;;;;;5045522;28;19924;-91
2023/01/28 15:43:45;;;;;;;;;;;;;;;;;;5071506;28;19932;-89
2023/01/28 15:46:10;;;;;;;;;;;;;;;;;;5025354;28;19913;-90
2023/01/28 15:48:37;;;;;;;;;;;;;;;;;;5026770;28;20322;-90
2023/01/28 15:51:05;;;;;;;;;;;;;;;;;;5026343;28;19999;-90
2023/01/28 15:53:31;;;;;;;;;;;;;;;;;;5052915;28;19913;-91
2023/01/28 15:55:57;;;;;;;;;;;;;;;;;;5028692;28;19932;-92
2023/01/28 15:58:22;;;;;;;;;;;;;;;;;;5040154;28;19970;-91
2023/01/28 16:00:49;;;;;;;;;;;;;;;;;;5040135;28;19924;-91
2023/01/28 16:03:15;;;;;;;;;;;;;;;;;;5024311;28;19937;-94
2023/01/28 16:05:49;;;;;;;;;;;;;;;;;;5021748;28;19912;-91
2023/01/28 16:08:27;;;;;;;;;;;;;;;;;;5036766;28;20250;-92
2023/01/28 16:20:16;;;;;;;;;;;;;;;;;;;;;
2023/01/28 16:23:26;;;;;;;;;;;;;;;;;;;;;
2023/01/28 16:25:54;;;;;;;;;;;;;;;;;;5063753;28;19974;-91
2023/01/28 16:31:50;;;;;;;;;;;;;;;;;;5055470;28;19909;-90
2023/01/28 16:38:08;;;;;;;;;;;;;;;;;;4983150;28;20639;-91
2023/01/28 16:44:46;;;;;;;;;;;;;;;;;;4984486;28;20358;-90
2023/01/28 16:47:18;;;;;;;;;;;;;;;;;;5022400;28;19991;-91
2023/01/28 16:56:40;;;;;;;;;;;;;;;;;;4970121;28;19995;-68
2023/01/28 16:59:06;;;;;;;;;;;;;;;;;;4955083;28;19960;-67
2023/01/28 17:01:31;;;;;;;;;;;;;;;;;;4958737;28;19922;-67
2023/01/28 17:03:59;;;;;;;;;;;;;;;;;;4957764;28;20015;-66
2023/01/28 17:06:25;;;;;;;;;;;;;;;;;;4956294;28;21444;-66
2023/01/28 17:08:51;;;;;;;;;;;;;;;;;;4956582;28;20894;-66
2023/01/28 17:11:21;;;;;;;;;;;;;;;;;;4943105;28;19964;-67
2023/01/28 17:13:49;;;;;;;;;;;;;;;;;;4955461;28;19948;-67
2023/01/28 17:16:14;;;;;;;;;;;;;;;;;;4967192;28;19925;-66
2023/01/28 17:18:39;;;;;;;;;;;;;;;;;;4958365;28;20611;-66
2023/01/28 17:21:06;;;;;;;;;;;;;;;;;;4972731;28;19958;-66
2023/01/28 17:23:33;;;;;;;;;;;;;;;;;;4957052;28;19924;-67
2023/01/28 17:26:03;;;;;;;;;;;;;;;;;;4972501;28;20041;-66
2023/01/28 17:28:32;;;;;;;;;;;;;;;;;;4953853;28;20008;-66
2023/01/28 17:30:57;;;;;;;;;;;;;;;;;;4964506;28;19961;-66
2023/01/28 17:33:23;;;;;;;;;;;;;;;;;;4957135;28;19992;-68
2023/01/28 17:35:51;;;;;;;;;;;;;;;;;;4959609;28;20363;-67
2023/01/28 17:38:17;;;;;;;;;;;;;;;;;;4954932;28;19922;-66
2023/01/28 17:40:45;;;;;;;;;;;;;;;;;;4954669;28;20444;-68
2023/01/28 17:43:10;;;;;;;;;;;;;;;;;;4972940;28;19917;-67
2023/01/28 17:45:35;;;;;;;;;;;;;;;;;;4954168;28;20322;-68
2023/01/28 17:48:01;;;;;;;;;;;;;;;;;;4953750;28;20019;-67
2023/01/28 17:50:27;;;;;;;;;;;;;;;;;;4972890;28;19933;-67
2023/01/28 17:52:52;;;;;;;;;;;;;;;;;;4969095;28;19957;-66
2023/01/28 17:55:18;;;;;;;;;;;;;;;;;;4943564;28;19933;-68
2023/01/28 17:57:44;;;;;;;;;;;;;;;;;;4948836;28;19922;-65
2023/01/28 18:00:10;;;;;;;;;;;;;;;;;;4934298;28;20179;-66
2023/01/28 18:02:36;;;;;;;;;;;;;;;;;;4931979;28;19925;-66
2023/01/28 18:05:06;;;;;;;;;;;;;;;;;;4951115;28;20082;-67
2023/01/28 18:07:32;;;;;;;;;;;;;;;;;;4947643;28;19918;-66
2023/01/28 18:10:00;;;;;;;;;;;;;;;;;;4949405;28;20456;-67
2023/01/28 18:12:29;;;;;;;;;;;;;;;;;;4949113;28;19917;-67
2023/01/28 18:14:54;;;;;;;;;;;;;;;;;;4935588;28;20539;-67
2023/01/28 18:17:25;;;;;;;;;;;;;;;;;;4952055;28;20415;-67
2023/01/28 18:19:50;;;;;;;;;;;;;;;;;;4938921;28;19917;-67
2023/01/28 18:22:18;;;;;;;;;;;;;;;;;;4941223;28;19922;-67
2023/01/28 18:24:46;;;;;;;;;;;;;;;;;;4938096;28;19922;-66
2023/01/28 18:27:14;;;;;;;;;;;;;;;;;;4951491;28;19922;-66
2023/01/28 18:29:42;;;;;;;;;;;;;;;;;;4950360;28;20391;-67
2023/01/28 18:32:07;;;;;;;;;;;;;;;;;;4924349;28;19922;-67
2023/01/28 18:34:32;;;;;;;;;;;;;;;;;;4949856;28;20004;-66
2023/01/28 18:37:02;;;;;;;;;;;;;;;;;;4948423;28;21976;-66
2023/01/28 18:39:29;;;;;;;;;;;;;;;;;;4924592;28;20322;-66
2023/01/28 18:41:54;;;;;;;;;;;;;;;;;;4939952;28;19922;-66
2023/01/28 18:44:20;;;;;;;;;;;;;;;;;;4940005;28;19948;-66
2023/01/28 18:46:46;;;;;;;;;;;;;;;;;;4950598;28;19925;-67
2023/01/28 18:52:27;;;;;;;;;;;;;;;;;;4951028;28;19924;-66
2023/01/28 18:54:56;;;;;;;;;;;;;;;;;;4949564;28;19926;-67
2023/01/28 18:57:21;;;;;;;;;;;;;;;;;;4924628;28;19957;-67
2023/01/28 18:59:47;;;;;;;;;;;;;;;;;;4933137;28;19926;-68
2023/01/28 19:02:14;;;;;;;;;;;;;;;;;;4949821;28;19918;-65
2023/01/28 19:04:40;;;;;;;;;;;;;;;;;;4937398;28;19922;-66
2023/01/28 19:07:07;;;;;;;;;;;;;;;;;;4938257;28;19944;-66
2023/01/28 19:09:35;;;;;;;;;;;;;;;;;;4945201;28;19922;-66
2023/01/28 19:12:00;;;;;;;;;;;;;;;;;;4931438;28;19945;-67
2023/01/28 19:14:26;;;;;;;;;;;;;;;;;;4953151;28;19923;-68
2023/01/28 19:16:54;;;;;;;;;;;;;;;;;;4922746;28;19992;-66
2023/01/28 19:19:22;;;;;;;;;;;;;;;;;;4951162;28;20209;-66
2023/01/28 19:21:47;;;;;;;;;;;;;;;;;;4939909;28;19922;-66
2023/01/28 19:24:16;;;;;;;;;;;;;;;;;;4950504;28;20037;-66
2023/01/28 19:26:43;;;;;;;;;;;;;;;;;;4918100;28;19922;-66
2023/01/28 19:29:09;;;;;;;;;;;;;;;;;;4939278;28;19965;-66
2023/01/28 19:31:34;;;;;;;;;;;;;;;;;;4920067;28;19922;-67
2023/01/28 19:34:00;;;;;;;;;;;;;;;;;;4950908;28;19989;-67
2023/01/28 19:36:25;;;;;;;;;;;;;;;;;;4938039;28;19922;-66
2023/01/28 19:38:51;;;;;;;;;;;;;;;;;;4949804;28;20048;-65
2023/01/28 19:41:19;;;;;;;;;;;;;;;;;;4934629;28;19929;-66
2023/01/28 19:43:44;;;;;;;;;;;;;;;;;;4949590;28;20432;-65
2023/01/28 19:46:09;;;;;;;;;;;;;;;;;;4947274;28;19922;-65